createdAt,value
2022-09-21T00:00:01.646Z,16.57
2022-09-21T00:02:34.701Z,17.80
2022-09-21T00:05:04.766Z,19.50
2022-09-21T00:07:34.960Z,19.70
2022-09-21T00:10:08.670Z,17.73
2022-09-21T00:12:38.829Z,19.17
2022-09-21T00:15:12.813Z,18.63
2022-09-21T00:17:42.742Z,16.97
2022-09-21T00:20:13.376Z,22.03
2022-09-21T00:22:44.317Z,18.60
2022-09-21T00:25:18.130Z,20.10
2022-09-21T00:27:48.705Z,17.70
2022-09-21T00:30:18.861Z,16.40
2022-09-21T00:32:48.845Z,19.27
2022-09-21T00:35:19.018Z,23.83
2022-09-21T00:37:49.222Z,20.93
2022-09-21T00:40:21.987Z,19.60
2022-09-21T00:42:52.679Z,19.03
2022-09-21T00:45:23.861Z,18.03
2022-09-21T00:47:55.632Z,21.97
2022-09-21T00:50:28.186Z,14.30
2022-09-21T00:53:01.686Z,18.60
2022-09-21T00:55:40.144Z,19.60
2022-09-21T00:58:16.635Z,15.47
2022-09-21T01:00:46.610Z,15.97
2022-09-21T01:03:17.059Z,16.57
2022-09-21T01:05:47.713Z,19.33
2022-09-21T01:08:20.692Z,21.03
2022-09-21T01:11:34.030Z,16.70
2022-09-21T01:14:46.538Z,25.17
2022-09-21T01:17:25.388Z,15.73
2022-09-21T01:20:32.272Z,15.20
2022-09-21T01:23:25.304Z,20.90
2022-09-21T01:26:14.968Z,19.33
2022-09-21T01:29:20.071Z,14.67
2022-09-21T01:31:57.666Z,16.33
2022-09-21T01:34:36.729Z,24.53
2022-09-21T01:37:15.511Z,16.13
2022-09-21T01:39:50.560Z,20.90
2022-09-21T01:42:24.304Z,19.27
2022-09-21T01:45:01.229Z,19.70
2022-09-21T01:47:33.434Z,25.60
2022-09-21T01:50:08.646Z,20.33
2022-09-21T01:52:45.348Z,22.83
2022-09-21T01:55:22.060Z,23.47
2022-09-21T01:58:03.611Z,24.47
2022-09-21T02:00:40.518Z,20.23
2022-09-21T02:03:23.530Z,19.63
2022-09-21T02:05:53.505Z,20.30
2022-09-21T02:08:25.594Z,18.47
2022-09-21T02:10:57.544Z,20.37
2022-09-21T02:13:31.639Z,19.40
2022-09-21T02:16:32.955Z,20.60
2022-09-21T02:19:17.102Z,17.87
2022-09-21T02:22:03.298Z,23.13
2022-09-21T02:24:43.802Z,20.67
2022-09-21T02:27:27.752Z,18.37
2022-09-21T02:30:09.835Z,20.10
2022-09-21T02:32:53.098Z,17.90
2022-09-21T02:35:38.780Z,18.37
2022-09-21T02:38:18.063Z,17.80
2022-09-21T02:40:55.003Z,16.90
2022-09-21T02:43:30.285Z,17.30
2022-09-21T02:46:07.588Z,15.00
2022-09-21T02:48:53.355Z,15.63
2022-09-21T02:51:31.633Z,17.07
2022-09-21T02:54:11.253Z,22.43
2022-09-21T02:56:45.297Z,18.13
2022-09-21T02:59:15.863Z,18.37
2022-09-21T03:01:46.658Z,16.93
2022-09-21T03:04:21.483Z,16.87
2022-09-21T03:06:51.827Z,19.27
2022-09-21T03:09:24.317Z,16.17
2022-09-21T03:11:54.875Z,17.77
2022-09-21T03:14:24.801Z,19.57
2022-09-21T03:16:55.075Z,22.20
2022-09-21T03:19:28.498Z,22.00
2022-09-21T03:21:59.855Z,18.97
2022-09-21T03:24:42.276Z,21.90
2022-09-21T03:27:12.301Z,16.80
2022-09-21T03:29:42.322Z,21.70
2022-09-21T03:32:12.725Z,19.53
2022-09-21T03:34:45.733Z,22.67
2022-09-21T03:37:16.123Z,22.53
2022-09-21T03:39:47.158Z,22.13
2022-09-21T03:42:17.107Z,21.37
2022-09-21T03:44:47.114Z,28.50
2022-09-21T03:47:17.091Z,23.57
2022-09-21T03:49:49.637Z,16.23
2022-09-21T03:52:19.584Z,17.73
2022-09-21T03:54:49.522Z,16.37
2022-09-21T03:57:19.587Z,17.90
2022-09-21T03:59:49.685Z,18.00
2022-09-21T04:02:19.987Z,20.40
2022-09-21T04:04:52.626Z,17.33
2022-09-21T04:07:22.628Z,19.03
2022-09-21T04:09:53.690Z,13.40
2022-09-21T04:12:25.523Z,17.77
2022-09-21T04:14:55.715Z,18.47
2022-09-21T04:17:25.693Z,19.13
2022-09-21T04:19:58.273Z,16.60
2022-09-21T04:22:28.419Z,18.37
2022-09-21T04:24:58.350Z,17.90
2022-09-21T04:27:28.546Z,24.60
2022-09-21T04:29:58.490Z,22.33
2022-09-21T04:32:28.788Z,23.57
2022-09-21T04:35:01.340Z,20.40
2022-09-21T04:37:31.367Z,30.13
2022-09-21T04:40:01.441Z,22.00
2022-09-21T04:42:31.493Z,16.20
2022-09-21T04:45:01.432Z,23.00
2022-09-21T04:47:33.034Z,24.77
2022-09-21T04:50:05.677Z,21.93
2022-09-21T04:52:35.648Z,23.27
2022-09-21T04:55:05.789Z,57.27
2022-09-21T04:57:36.380Z,16.40
2022-09-21T05:00:08.149Z,22.33
2022-09-21T05:02:39.768Z,22.90
2022-09-21T05:05:13.398Z,18.90
2022-09-21T05:07:43.388Z,24.77
2022-09-21T05:10:11.829Z,23.80
2022-09-21T05:12:43.353Z,18.47
2022-09-21T05:15:13.995Z,19.40
2022-09-21T05:17:44.597Z,22.20
2022-09-21T05:20:17.193Z,22.47
2022-09-21T05:22:47.095Z,25.40
2022-09-21T05:25:17.577Z,23.60
2022-09-21T05:27:47.977Z,22.83
2022-09-21T05:30:19.514Z,17.30
2022-09-21T05:33:00.459Z,21.70
2022-09-21T05:35:40.748Z,25.10
2022-09-21T05:38:19.811Z,20.93
2022-09-21T05:40:50.835Z,17.50
2022-09-21T05:43:21.859Z,23.90
2022-09-21T05:46:05.550Z,23.60
2022-09-21T05:48:45.595Z,23.53
2022-09-21T05:51:37.055Z,23.93
2022-09-21T05:54:18.349Z,27.60
2022-09-21T05:57:01.305Z,23.90
2022-09-21T05:59:51.302Z,25.70
2022-09-21T06:02:47.272Z,32.73
2022-09-21T06:05:19.347Z,22.90
2022-09-21T06:07:51.965Z,24.37
2022-09-21T06:10:22.339Z,28.93
2022-09-21T06:12:52.295Z,25.33
2022-09-21T06:15:22.597Z,24.33
2022-09-21T06:17:52.525Z,23.90
2022-09-21T06:20:23.552Z,19.70
2022-09-21T06:22:56.091Z,16.43
2022-09-21T06:25:26.056Z,16.23
2022-09-21T06:27:56.055Z,14.00
2022-09-21T06:30:26.098Z,13.23
2022-09-21T06:32:56.115Z,11.90
2022-09-21T06:35:26.261Z,11.63
2022-09-21T06:38:02.057Z,9.20
2022-09-21T06:40:33.954Z,11.70
2022-09-21T06:43:05.835Z,10.70
2022-09-21T06:45:36.012Z,11.37
2022-09-21T06:48:06.467Z,10.33
2022-09-21T06:50:36.829Z,10.50
2022-09-21T06:53:09.365Z,12.93
2022-09-21T06:55:39.257Z,11.90
2022-09-21T06:58:09.463Z,12.70
2022-09-21T07:00:39.433Z,13.27
2022-09-21T07:03:09.356Z,10.17
2022-09-21T07:05:39.654Z,10.20
2022-09-21T07:11:02.987Z,9.83
2022-09-21T07:13:33.359Z,10.60
2022-09-21T07:16:07.347Z,11.37
2022-09-21T07:18:44.306Z,8.07
2022-09-21T07:21:15.152Z,11.13
2022-09-21T07:23:47.789Z,11.30
2022-09-21T07:26:18.127Z,9.90
2022-09-21T07:28:48.351Z,8.70
2022-09-21T07:31:20.131Z,9.07
2022-09-21T07:33:50.137Z,9.50
2022-09-21T07:36:20.099Z,7.83
2022-09-21T07:38:53.203Z,9.17
2022-09-21T07:41:23.608Z,7.37
2022-09-21T07:43:54.006Z,9.10
2022-09-21T07:46:23.974Z,8.40
2022-09-21T07:48:56.907Z,11.53
2022-09-21T07:51:27.826Z,7.60
2022-09-21T07:54:00.566Z,11.37
2022-09-21T07:56:30.592Z,11.97
2022-09-21T07:59:07.248Z,8.90
2022-09-21T08:01:39.696Z,8.17
2022-09-21T08:04:12.657Z,11.33
2022-09-21T08:06:42.667Z,10.27
2022-09-21T08:09:15.240Z,9.60
2022-09-21T08:11:46.398Z,9.20
2022-09-21T08:14:25.196Z,7.63
2022-09-21T08:16:56.382Z,13.13
2022-09-21T08:19:27.868Z,8.23
2022-09-21T08:21:58.185Z,9.30
2022-09-21T08:24:31.432Z,9.53
2022-09-21T08:27:01.451Z,10.27
2022-09-21T08:29:31.648Z,10.03
2022-09-21T08:32:01.683Z,14.63
2022-09-21T08:34:31.938Z,8.03
2022-09-21T08:37:02.815Z,6.93
2022-09-21T08:39:35.356Z,9.10
2022-09-21T08:42:27.547Z,7.80
2022-09-21T08:45:06.442Z,7.13
2022-09-21T08:47:46.940Z,10.13
2022-09-21T08:50:34.753Z,10.70
2022-09-21T08:53:10.757Z,6.80
2022-09-21T08:55:43.406Z,10.87
2022-09-21T08:58:26.174Z,7.07
2022-09-21T09:01:23.673Z,7.20
2022-09-21T09:04:23.639Z,7.93
2022-09-21T09:07:14.167Z,11.47
2022-09-21T09:10:05.852Z,6.83
2022-09-21T09:13:00.872Z,6.50
2022-09-21T09:15:54.403Z,8.37
2022-09-21T09:18:36.070Z,6.23
2022-09-21T09:21:24.493Z,5.77
2022-09-21T09:24:05.398Z,8.00
2022-09-21T09:26:42.868Z,5.90
2022-09-21T09:29:27.529Z,7.20
2022-09-21T09:32:00.854Z,6.77
2022-09-21T09:34:38.195Z,6.10
2022-09-21T09:37:15.615Z,6.27
2022-09-21T09:39:51.796Z,3.97
2022-09-21T09:42:45.411Z,4.50
2022-09-21T09:45:58.180Z,4.63
2022-09-21T09:49:09.259Z,3.53
2022-09-21T09:51:40.566Z,4.53
2022-09-21T09:54:18.437Z,3.97
2022-09-21T09:56:48.536Z,5.33
2022-09-21T09:59:31.105Z,5.47
2022-09-21T10:02:10.061Z,8.20
2022-09-21T10:05:03.718Z,3.33
2022-09-21T10:07:39.827Z,2.97
2022-09-21T10:10:38.983Z,19.90
2022-09-21T10:13:18.868Z,17.70
2022-09-21T10:15:54.850Z,5.70
2022-09-21T10:18:37.781Z,3.80
2022-09-21T10:21:11.808Z,3.23
2022-09-21T10:23:41.952Z,6.33
2022-09-21T10:28:38.269Z,2.90
2022-09-21T10:31:27.849Z,4.73
2022-09-21T10:34:16.499Z,3.37
2022-09-21T10:36:54.763Z,3.17
2022-09-21T10:42:18.744Z,3.53
2022-09-21T10:44:52.148Z,3.37
2022-09-21T10:47:26.405Z,2.70
2022-09-21T10:49:59.828Z,6.03
2022-09-21T10:52:40.643Z,4.03
2022-09-21T10:55:20.568Z,3.67
2022-09-21T11:00:46.309Z,5.50
2022-09-21T11:09:37.484Z,10.90
2022-09-21T11:34:36.493Z,4.80
2022-09-21T11:37:20.624Z,4.70
2022-09-21T11:40:19.394Z,2.67
2022-09-21T11:46:08.732Z,3.50
2022-09-21T11:51:57.247Z,6.37
2022-09-21T11:55:09.576Z,3.47
2022-09-21T11:57:54.259Z,4.00
2022-09-21T12:00:27.681Z,3.33
2022-09-21T12:03:31.728Z,5.90
2022-09-21T12:10:12.701Z,7.23
2022-09-21T12:12:53.556Z,2.43
2022-09-21T12:15:35.388Z,5.50
2022-09-21T12:18:14.979Z,2.90
2022-09-21T12:20:53.524Z,3.70
2022-09-21T12:26:25.949Z,3.40
2022-09-21T12:29:02.516Z,4.30
2022-09-21T12:31:40.481Z,3.33
2022-09-21T12:34:19.310Z,2.73
2022-09-21T12:39:40.072Z,3.43
2022-09-21T12:42:27.631Z,5.63
2022-09-21T12:45:06.076Z,3.00
2022-09-21T12:47:56.008Z,4.43
2022-09-21T12:53:11.646Z,3.97
2022-09-21T13:01:35.214Z,3.80
2022-09-21T13:04:27.399Z,2.90
2022-09-21T13:07:49.338Z,3.30
2022-09-21T13:10:25.976Z,3.07
2022-09-21T13:13:03.328Z,3.37
2022-09-21T13:18:32.511Z,6.40
2022-09-21T13:21:18.990Z,3.10
2022-09-21T13:26:41.654Z,3.00
2022-09-21T13:29:40.756Z,3.70
2022-09-21T13:34:54.332Z,3.90
2022-09-21T13:40:59.623Z,3.10
2022-09-21T13:44:05.253Z,3.90
2022-09-21T13:46:57.175Z,2.70
2022-09-21T13:50:00.512Z,2.90
2022-09-21T13:55:31.064Z,3.00
2022-09-21T13:58:06.318Z,5.47
2022-09-21T14:00:42.747Z,2.83
2022-09-21T14:03:27.484Z,2.30
2022-09-21T14:06:05.032Z,2.97
2022-09-21T14:08:42.483Z,2.60
2022-09-21T14:11:26.931Z,3.47
2022-09-21T14:17:01.444Z,3.07
2022-09-21T14:20:30.176Z,4.20
2022-09-21T14:23:31.155Z,2.97
2022-09-21T14:26:02.609Z,3.90
2022-09-21T14:28:45.248Z,3.13
2022-09-21T14:31:23.868Z,6.10
2022-09-21T14:36:45.881Z,3.20
2022-09-21T14:42:06.246Z,2.60
2022-09-21T14:44:37.946Z,3.07
2022-09-21T14:50:34.153Z,2.40
2022-09-21T14:53:39.382Z,2.70
2022-09-21T14:56:42.594Z,4.50
2022-09-21T14:59:38.696Z,2.73
2022-09-21T15:02:23.616Z,4.63
2022-09-21T15:05:21.127Z,6.67
2022-09-21T15:10:54.541Z,2.90
2022-09-21T15:13:47.624Z,2.60
2022-09-21T15:16:41.931Z,3.00
2022-09-21T15:22:22.040Z,3.50
2022-09-21T15:24:56.181Z,2.70
2022-09-21T15:27:33.810Z,3.97
2022-09-21T15:30:09.717Z,3.13
2022-09-21T15:32:58.707Z,2.80
2022-09-21T15:35:32.662Z,2.73
2022-09-21T15:40:53.459Z,3.00
2022-09-21T15:43:23.960Z,2.80
2022-09-21T15:45:59.260Z,3.70
2022-09-21T15:48:34.396Z,2.50
2022-09-21T15:54:06.614Z,4.73
2022-09-21T15:56:40.592Z,2.70
2022-09-21T15:59:29.020Z,3.37
2022-09-21T16:02:03.770Z,2.60
2022-09-21T16:04:33.998Z,2.60
2022-09-21T16:07:07.366Z,2.97
2022-09-21T16:12:46.980Z,3.30
2022-09-21T16:15:24.768Z,2.57
2022-09-21T16:20:51.837Z,2.90
2022-09-21T16:26:04.790Z,2.70
2022-09-21T16:28:41.279Z,2.30
2022-09-21T16:31:30.223Z,2.60
2022-09-21T16:34:21.897Z,3.40
2022-09-21T16:36:54.776Z,3.23
2022-09-21T16:39:25.724Z,6.87
2022-09-21T16:42:04.136Z,2.73
2022-09-21T16:44:44.604Z,8.20
2022-09-21T16:47:18.286Z,2.80
2022-09-21T16:49:48.239Z,3.00
2022-09-21T16:52:18.651Z,3.90
2022-09-21T16:54:49.183Z,4.10
2022-09-21T16:57:22.042Z,4.03
2022-09-21T16:59:52.420Z,16.97
2022-09-21T17:02:23.644Z,12.23
2022-09-21T17:04:53.692Z,4.57
2022-09-21T17:07:23.723Z,3.83
2022-09-21T17:09:54.052Z,4.30
2022-09-21T17:12:28.018Z,9.10
2022-09-21T17:14:58.571Z,7.90
2022-09-21T17:17:29.683Z,7.33
2022-09-21T17:20:00.303Z,5.10
2022-09-21T17:22:30.820Z,7.97
2022-09-21T17:25:01.274Z,3.63
2022-09-21T17:27:33.808Z,4.17
2022-09-21T17:30:04.365Z,3.43
2022-09-21T17:32:38.539Z,5.77
2022-09-21T17:35:19.823Z,4.63
2022-09-21T17:37:49.819Z,4.53
2022-09-21T17:40:23.352Z,4.80
2022-09-21T17:43:05.180Z,5.80
2022-09-21T17:45:43.652Z,6.80
2022-09-21T17:48:22.130Z,8.63
2022-09-21T17:50:53.413Z,5.57
2022-09-21T17:53:34.653Z,5.53
2022-09-21T17:56:33.060Z,6.47
2022-09-21T17:59:08.576Z,7.43
2022-09-21T18:01:41.493Z,6.60
2022-09-21T18:04:14.007Z,6.90
2022-09-21T18:06:44.916Z,6.90
2022-09-21T18:09:15.895Z,4.53
2022-09-21T18:12:12.760Z,21.40
2022-09-21T18:14:58.681Z,18.47
2022-09-21T18:17:51.262Z,8.10
2022-09-21T18:20:39.599Z,9.33
2022-09-21T18:23:23.110Z,9.03
2022-09-21T18:25:58.869Z,10.67
2022-09-21T18:28:44.148Z,7.90
2022-09-21T18:31:46.615Z,4.30
2022-09-21T18:34:54.808Z,8.50
2022-09-21T18:37:41.852Z,5.13
2022-09-21T18:40:31.611Z,3.77
2022-09-21T18:43:12.950Z,5.00
2022-09-21T18:45:49.175Z,7.43
2022-09-21T18:48:42.260Z,5.33
2022-09-21T18:51:24.472Z,10.80
2022-09-21T18:53:58.306Z,8.50
2022-09-21T18:56:34.080Z,6.93
2022-09-21T18:59:06.415Z,7.33
2022-09-21T19:01:37.693Z,7.10
2022-09-21T19:04:12.376Z,5.13
2022-09-21T19:06:53.977Z,9.43
2022-09-21T19:09:52.373Z,11.93
2022-09-21T19:12:48.409Z,13.23
2022-09-21T19:15:55.637Z,12.57
2022-09-21T19:18:27.397Z,8.63
2022-09-21T19:21:19.035Z,10.90
2022-09-21T19:24:08.858Z,8.07
2022-09-21T19:26:51.840Z,10.10
2022-09-21T19:29:41.425Z,10.43
2022-09-21T19:32:18.858Z,14.80
2022-09-21T19:34:49.424Z,9.10
2022-09-21T19:37:22.422Z,7.07
2022-09-21T19:39:53.216Z,6.83
2022-09-21T19:42:34.817Z,8.30
2022-09-21T19:45:21.993Z,9.40
2022-09-21T19:47:55.826Z,10.30
2022-09-21T19:50:40.068Z,8.63
2022-09-21T19:53:27.916Z,11.73
2022-09-21T19:56:14.003Z,10.30
2022-09-21T19:58:57.381Z,11.00
2022-09-21T20:01:28.874Z,9.13
2022-09-21T20:03:59.716Z,10.13
2022-09-21T20:06:38.883Z,14.30
2022-09-21T20:09:20.464Z,9.97
2022-09-21T20:12:01.308Z,9.47
2022-09-21T20:14:38.955Z,10.27
2022-09-21T20:17:15.699Z,11.40
2022-09-21T20:19:55.952Z,10.90
2022-09-21T20:22:37.809Z,9.23
2022-09-21T20:25:21.640Z,11.50
2022-09-21T20:27:55.960Z,21.13
2022-09-21T20:30:32.785Z,9.40
2022-09-21T20:33:06.915Z,11.70
2022-09-21T20:35:37.875Z,12.30
2022-09-21T20:38:07.936Z,8.80
2022-09-21T20:40:42.449Z,11.90
2022-09-21T20:43:14.202Z,11.93
2022-09-21T20:45:47.920Z,21.73
2022-09-21T20:48:17.944Z,12.47
2022-09-21T20:50:50.602Z,10.20
2022-09-21T20:53:22.179Z,16.63
2022-09-21T20:56:01.485Z,12.57
2022-09-21T20:58:32.175Z,12.93
2022-09-21T21:01:06.258Z,11.70
2022-09-21T21:03:36.402Z,8.77
2022-09-21T21:06:16.670Z,11.53
2022-09-21T21:08:47.152Z,14.93
2022-09-21T21:11:20.487Z,9.60
2022-09-21T21:13:50.767Z,8.93
2022-09-21T21:16:20.782Z,11.80
2022-09-21T21:18:50.918Z,13.10
2022-09-21T21:21:21.071Z,11.57
2022-09-21T21:24:06.875Z,7.87
2022-09-21T21:27:00.762Z,9.93
2022-09-21T21:29:30.258Z,11.27
2022-09-21T21:32:00.863Z,13.00
2022-09-21T21:34:31.363Z,10.27
2022-09-21T21:37:01.321Z,9.47
2022-09-21T21:39:31.457Z,8.50
2022-09-21T21:42:04.148Z,12.23
2022-09-21T21:44:34.355Z,11.00
2022-09-21T21:47:21.264Z,13.97
2022-09-21T21:49:54.428Z,10.50
2022-09-21T21:52:24.416Z,10.30
2022-09-21T21:54:54.512Z,10.83
2022-09-21T21:57:27.254Z,11.97
2022-09-21T21:59:57.217Z,12.47
2022-09-21T22:02:27.598Z,11.83
2022-09-21T22:04:57.600Z,11.90
2022-09-21T22:07:27.535Z,10.60
2022-09-21T22:09:57.568Z,19.43
2022-09-21T22:12:30.169Z,13.30
2022-09-21T22:15:00.146Z,13.10
2022-09-21T22:17:30.055Z,12.53
2022-09-21T22:20:00.624Z,11.17
2022-09-21T22:22:30.600Z,12.80
2022-09-21T22:25:01.132Z,11.70
2022-09-21T22:27:33.638Z,12.60
2022-09-21T22:30:03.635Z,11.97
2022-09-21T22:32:33.596Z,14.47
2022-09-21T22:35:03.740Z,10.10
2022-09-21T22:37:34.701Z,14.97
2022-09-21T22:40:05.219Z,12.67
2022-09-21T22:42:37.866Z,9.60
2022-09-21T22:45:09.202Z,11.43
2022-09-21T22:47:39.190Z,11.17
2022-09-21T22:50:11.029Z,10.60
2022-09-21T22:52:40.978Z,13.97
2022-09-21T22:55:12.493Z,12.63
2022-09-21T22:57:45.061Z,17.37
2022-09-21T23:00:17.263Z,12.57
2022-09-21T23:02:47.285Z,12.17
2022-09-21T23:05:17.535Z,12.80
2022-09-21T23:07:47.539Z,12.67
2022-09-21T23:10:17.761Z,10.67
2022-09-21T23:12:52.329Z,10.60
2022-09-21T23:15:23.347Z,16.20
2022-09-21T23:17:53.688Z,12.20
2022-09-21T23:20:23.730Z,11.40
2022-09-21T23:22:53.691Z,11.30
2022-09-21T23:25:23.748Z,14.10
2022-09-21T23:27:57.721Z,12.90
2022-09-21T23:30:27.745Z,9.90
2022-09-21T23:32:57.756Z,12.57
2022-09-21T23:35:27.842Z,11.43
2022-09-21T23:37:58.107Z,12.80
2022-09-21T23:40:28.453Z,10.30
2022-09-21T23:43:01.632Z,10.87
2022-09-21T23:45:31.633Z,15.70
2022-09-21T23:48:01.637Z,13.67
2022-09-21T23:50:31.663Z,12.57
2022-09-21T23:53:03.832Z,14.57
2022-09-21T23:55:34.122Z,11.33
2022-09-21T23:58:06.640Z,9.10
